Nearby METAR Reports

 

KPMD - Palmdale, California, USA
Distance from station: NNE 12mi, 19km
Updated: Sun, 25-Jun-2017 7:53pm PDT
Clear
Clear
 Wind from WNW
Wind: WNW 22 mph , 35 km/h
Temperature: 95°F , 35°C
Dew Point: 34°F , 1°C
Humidity: 11%
Barometer: 29.99 inHg , 1015.6 hPa
Clouds: Clear
Visibility: 10 miles , 16 km
2017/06/26 02:53 KPMD 260253Z AUTO 30019KT 10SM CLR 35/01 A2999 RMK AO2 PK WND 29033/0234 SLP116 T03500006 53005
KWJF - Lancaster/Fox, California, USA
Distance from station: N 17mi, 27km
Updated: Sun, 25-Jun-2017 7:56pm PDT
Clear
Clear
 Wind from WNW
Wind: WNW 15 mph , 24 km/h
Temperature: 95°F , 35°C
Dew Point: 34°F , 1°C
Humidity: 11%
Barometer: 29.97 inHg , 1014.9 hPa
Clouds: Clear
Visibility: 10 miles , 16 km
2017/06/26 02:56 KWJF 260256Z 29013KT 10SM CLR 35/01 A2997 RMK AO2 SLP121 T03500011 53008
 
KMWS - Mount Wilson, California, USA
Distance from station: SSE 18mi, 30km
Updated: Wed, 13-May-2015 6:45am PDT
NOT Current

 Wind from S
Wind: S 3 mph , 6 km/h, Gust: 5 mph , 7 km/h
Temperature: 43°F , 6°C
Dew Point: -0°F , -18°C
Humidity: 16%
2015/05/13 13:45 KMWS 131345Z 18003G04KT 06/M18 RMK SNOW DEPTH 1.00
KWHP - La / Whiteman, California, USA
Distance from station: SW 21mi, 34km
Updated: Sun, 25-Jun-2017 7:55pm PDT
Clear
Clear
 Wind from SSE
Wind: SSE 9 mph , 15 km/h
Temperature: 82°F , 28°C
Heat Index: 82°F , 28°C
Dew Point: 57°F , 14°C
Humidity: 42%
Barometer: 29.92 inHg , 1013.2 hPa
Clouds: Clear
Visibility: 10 miles , 16 km
2017/06/26 02:55 KWHP 260255Z 15008KT 10SM SKC 28/14 A2992 RMK LAST
 
KBUR - Burbank, California, USA
Distance from station: SSW 22mi, 35km
Updated: Sun, 25-Jun-2017 7:53pm PDT
Clear
Clear
 Wind from SE
Wind: SE 9 mph , 15 km/h
Temperature: 81°F , 27°C
Heat Index: 81°F , 27°C
Dew Point: 59°F , 15°C
Humidity: 48%
Barometer: 29.88 inHg , 1011.9 hPa
Clouds: Clear
Visibility: 10 miles , 16 km
2017/06/26 02:53 KBUR 260253Z 13008KT 10SM CLR 27/15 A2988 RMK AO2 SLP103 T02670150 53006 $
KVNY - Van Nuys, California, USA
Distance from station: SW 25mi, 40km
Updated: Sun, 25-Jun-2017 7:51pm PDT
Clear
Clear
 Wind from SE
Wind: SE 5 mph , 7 km/h
Temperature: 84°F , 29°C
Heat Index: 84°F , 29°C
Dew Point: 59°F , 15°C
Humidity: 43%
Barometer: 29.87 inHg , 1011.5 hPa
Clouds: Clear
Visibility: 10 miles , 16 km
2017/06/26 02:51 KVNY 260251Z 13004KT 10SM CLR 29/15 A2987 RMK AO2 SLP105 T02890150 53014
 
KEDW - Edwards Afb, California, USA
Distance from station: NNE 33mi, 53km
Updated: Sun, 25-Jun-2017 7:58pm PDT
Clear
Clear
 Wind from WNW
Wind: WNW 21 mph , 33 km/h
Temperature: 97°F , 36°C
Dew Point: 25°F , -4°C
Humidity: 7%
Barometer: 29.93 inHg , 1013.5 hPa
Clouds: Clear
Visibility: 10 miles , 16 km
2017/06/26 02:58 KEDW 260258Z AUTO 29018KT 10SM CLR 36/M04 A2993 RMK AO2 PK WND 29032/06 SLP104 T03571041 53007
KSMO - Santa Monica, California, USA
Distance from station: SSW 35mi, 57km
Updated: Sun, 25-Jun-2017 7:51pm PDT
Clear
Clear
 Wind from varies
Wind: varies 3 mph , 6 km/h
Temperature: 66°F , 19°C
Dew Point: 61°F , 16°C
Humidity: 83%
Barometer: 29.88 inHg , 1011.9 hPa
Clouds: Clear
Visibility: 10 miles , 16 km
2017/06/26 02:51 KSMO 260251Z VRB03KT 10SM CLR 19/16 A2988 RMK AO2 SLP115 T01940156 55000
 
KLAX - Los Angeles, California, USA
Distance from station: SSW 39mi, 63km
Updated: Sun, 25-Jun-2017 7:53pm PDT
Clear
Clear
 Wind from varies
Wind: varies 6 mph , 9 km/h
Temperature: 68°F , 20°C
Dew Point: 63°F , 17°C
Humidity: 83%
Barometer: 29.88 inHg , 1011.9 hPa
Clouds: Clear
Visibility: 10 miles , 16 km
2017/06/26 02:53 KLAX 260253Z VRB05KT 10SM CLR 20/17 A2988 RMK AO2 SLP114 T02000167 53001
KMHV - Mojave, California, USA
Distance from station: N 41mi, 66km
Updated: Sun, 25-Jun-2017 8:00pm PDT
Clear
Clear
 Wind from WNW
Wind: WNW 20 mph , 31 km/h, Gust: 25 mph , 41 km/h
Temperature: 91°F , 33°C
Dew Point: 36°F , 2°C
Humidity: 14%
Barometer: 29.99 inHg , 1015.6 hPa
Clouds: Clear
Visibility: 10 miles , 16 km
2017/06/26 03:00 KMHV 260300Z AUTO 29017G22KT 10SM CLR 33/02 A2999 RMK A01
 
KFUL - Fullerton, California, USA
Distance from station: SSE 44mi, 70km
Updated: Sun, 25-Jun-2017 7:53pm PDT
Clear
Clear
 Wind from WSW
Wind: WSW 5 mph , 7 km/h
Temperature: 81°F , 27°C
Heat Index: 82°F , 28°C
Dew Point: 61°F , 16°C
Humidity: 51%
Barometer: 29.86 inHg , 1011.2 hPa
Clouds: Clear
Visibility: 10 miles , 16 km
2017/06/26 02:53 KFUL 260253Z 24004KT 10SM CLR 27/16 A2986 RMK AO2 SLP109 T02670156 53001
KONT - Ontario, California, USA
Distance from station: SE 45mi, 72km
Updated: Sun, 25-Jun-2017 7:53pm PDT
Clear
Clear
 Wind from SW
Wind: SW 9 mph , 15 km/h
Temperature: 84°F , 29°C
Heat Index: 84°F , 29°C
Dew Point: 59°F , 15°C
Humidity: 43%
Barometer: 29.89 inHg , 1012.2 hPa
Clouds: Clear
Visibility: 10 miles , 16 km
2017/06/26 02:53 KONT 260253Z 22008KT 10SM CLR 29/15 A2989 RMK AO2 SLP103 T02940150 53009
 
KLGB - Long Beach, California, USA
Distance from station: S 46mi, 74km
Updated: Sun, 25-Jun-2017 7:53pm PDT
Clear
Clear
 Wind from WNW
Wind: WNW 9 mph , 15 km/h
Temperature: 75°F , 24°C
Dew Point: 57°F , 14°C
Humidity: 54%
Barometer: 29.87 inHg , 1011.5 hPa
Clouds: Clear
Visibility: 10 miles , 16 km
2017/06/26 02:53 KLGB 260253Z 29008KT 10SM CLR 24/14 A2987 RMK AO2 SLP115 T02390139 53004
KVCV - Victorville, California, USA
Distance from station: E 46mi, 74km
Updated: Sun, 25-Jun-2017 8:15pm PDT
Clear
Clear
 Wind from WNW
Wind: WNW 15 mph , 24 km/h, Gust: 21 mph , 33 km/h
Temperature: 93°F , 34°C
Dew Point: 28°F , -2°C
Humidity: 10%
Barometer: 30.00 inHg , 1015.9 hPa
Clouds: Clear
Visibility: 10 miles , 16 km
2017/06/26 03:15 KVCV 260315Z AUTO 30013G18KT 10SM CLR 34/M02 A3000 RMK AO2
 
KTSP - Tehachapi, California, USA
Distance from station: NNW 48mi, 77km
Updated: Sun, 25-Jun-2017 8:15pm PDT
Clear
Clear
 Wind from WNW
Wind: WNW 17 mph , 28 km/h, Gust: 26 mph , 43 km/h
Temperature: 84°F , 29°C
Dew Point: 34°F , 1°C
Humidity: 16%
Barometer: 30.12 inHg , 1020 hPa
Clouds: Clear
Visibility: 10 miles , 16 km
2017/06/26 03:15 KTSP 260315Z AUTO 30015G23KT 10SM CLR 29/01 A3012 RMK AO2